Time;durP1;ratioP1;P1;durP2;ratioP2;P2;SDS_P1;SDS_P2;PMS_P1;PMS_P2;Temp;Humidity;BMP_temperature;BMP_pressure;BME280_temperature;BME280_humidity;BME280_pressure;Samples;Min_cycle;Max_cycle;Signal;HPM_P1;HPM_P2
2022/04/15 00:00:43;;;;;;;16.95;10.63;;;13.30;99.90;;;;;;5000323;28;20069;-32
2022/04/15 00:03:11;;;;;;;16.50;11.30;;;13.30;99.90;;;;;;4996269;28;20052;-33
2022/04/15 00:05:37;;;;;;;15.63;10.93;;;13.30;99.90;;;;;;5000000;28;20791;-34
2022/04/15 00:08:13;;;;;;;16.50;10.88;;;13.30;99.90;;;;;;4995618;28;20108;-34
2022/04/15 00:10:45;;;;;;;16.83;11.30;;;13.20;99.90;;;;;;5004333;28;20438;-35
2022/04/15 00:13:12;;;;;;;19.08;11.52;;;13.20;99.90;;;;;;4998501;28;20364;-35
2022/04/15 00:15:38;;;;;;;18.98;11.57;;;13.20;99.90;;;;;;5001293;28;20469;-33
2022/04/15 00:18:04;;;;;;;18.58;11.43;;;13.20;99.90;;;;;;4995005;28;20030;-35
2022/04/15 00:20:30;;;;;;;18.52;11.30;;;13.10;99.90;;;;;;4998751;28;20075;-34
2022/04/15 00:22:58;;;;;;;17.02;10.10;;;13.20;99.90;;;;;;5001014;28;20423;-34
2022/04/15 00:25:25;;;;;;;15.93;10.85;;;13.30;99.90;;;;;;4995917;28;20085;-34
2022/04/15 00:27:51;;;;;;;18.63;11.57;;;13.40;99.90;;;;;;5001028;28;20037;-34
2022/04/15 00:30:18;;;;;;;15.95;10.88;;;13.30;99.90;;;;;;5002317;28;20884;-34
2022/04/15 00:32:43;;;;;;;16.75;10.88;;;13.30;99.90;;;;;;4998006;28;20040;-35
2022/04/15 00:35:10;;;;;;;19.52;11.35;;;13.40;99.90;;;;;;5000635;28;20030;-35
2022/04/15 00:37:36;;;;;;;18.13;11.05;;;13.50;99.90;;;;;;4998498;28;20026;-34
2022/04/15 00:40:02;;;;;;;16.73;11.30;;;13.60;99.90;;;;;;5001272;28;20041;-34
2022/04/15 00:42:29;;;;;;;17.33;11.27;;;13.60;99.90;;;;;;5001318;28;20487;-35
2022/04/15 00:44:56;;;;;;;20.02;11.50;;;13.60;99.90;;;;;;5000334;28;20030;-34
2022/04/15 00:47:44;;;;;;;15.27;10.50;;;13.60;99.90;;;;;;4999273;28;20052;-35
2022/04/15 00:50:10;;;;;;;15.15;10.25;;;13.60;99.90;;;;;;4998607;28;20437;-35
2022/04/15 00:52:42;;;;;;;16.77;10.85;;;13.60;99.90;;;;;;5004126;28;20022;-35
2022/04/15 00:55:09;;;;;;;14.60;10.00;;;13.60;99.90;;;;;;4996597;28;20412;-36
2022/04/15 00:57:40;;;;;;;17.23;9.95;;;13.60;99.90;;;;;;5004327;28;20061;-35
2022/04/15 01:00:13;;;;;;;17.67;10.75;;;13.60;99.90;;;;;;4994856;28;20034;-35
2022/04/15 01:02:40;;;;;;;18.20;11.07;;;13.40;99.90;;;;;;4999340;28;20586;-36
2022/04/15 01:05:08;;;;;;;20.95;11.80;;;13.20;99.90;;;;;;4995196;28;20057;-35
2022/04/15 01:07:39;;;;;;;19.20;12.75;;;13.20;99.90;;;;;;4998073;28;20403;-35
2022/04/15 01:10:10;;;;;;;14.98;10.57;;;13.20;99.90;;;;;;4998446;28;20376;-35
2022/04/15 01:12:38;;;;;;;15.10;11.00;;;13.30;99.90;;;;;;5000546;28;20642;-35
2022/04/15 01:15:07;;;;;;;16.20;11.10;;;13.30;99.90;;;;;;4997726;28;20487;-35
2022/04/15 01:17:35;;;;;;;17.17;10.20;;;13.30;99.90;;;;;;4998301;28;20494;-36
2022/04/15 01:20:03;;;;;;;19.27;10.85;;;13.30;99.90;;;;;;4994915;28;20426;-35
2022/04/15 01:22:41;;;;;;;16.63;11.02;;;13.20;99.90;;;;;;5000118;28;20026;-36
2022/04/15 01:25:08;;;;;;;11.30;8.48;;;13.00;99.90;;;;;;4997808;28;20038;-35
2022/04/15 01:27:36;;;;;;;11.32;8.40;;;13.10;99.90;;;;;;4995257;28;20054;-35
2022/04/15 01:30:04;;;;;;;10.18;7.88;;;13.10;99.90;;;;;;5000065;28;20442;-35
2022/04/15 01:32:30;;;;;;;;;;;13.10;99.90;;;;;;4994581;28;20810;-34
2022/04/15 01:34:56;;;;;;;17.23;10.88;;;13.00;99.90;;;;;;4995267;28;20042;-34
2022/04/15 01:37:23;;;;;;;16.80;10.68;;;13.00;99.90;;;;;;4999435;28;20049;-35
2022/04/15 01:39:50;;;;;;;18.55;11.75;;;13.10;99.90;;;;;;5001631;28;20033;-35
2022/04/15 01:42:16;;;;;;;16.38;10.95;;;13.10;99.90;;;;;;4997171;28;20034;-36
2022/04/15 01:44:43;;;;;;;16.58;11.40;;;13.00;99.90;;;;;;5000223;28;20034;-35
2022/04/15 01:47:09;;;;;;;19.75;11.98;;;12.90;99.90;;;;;;4998546;28;20033;-35
2022/04/15 01:49:35;;;;;;;17.90;12.18;;;12.90;99.90;;;;;;4997961;28;20118;-35
2022/04/15 01:52:00;;;;;;;16.77;10.73;;;12.80;99.90;;;;;;5003655;28;20049;-35
2022/04/15 01:54:29;;;;;;;19.50;11.63;;;12.90;99.90;;;;;;4996981;28;20029;-35
2022/04/15 01:56:55;;;;;;;;;;;12.90;99.90;;;;;;4995423;28;20057;-35
2022/04/15 01:59:21;;;;;;;17.40;10.57;;;12.90;99.90;;;;;;4996752;28;20004;-36
2022/04/15 02:01:47;;;;;;;14.50;10.60;;;12.90;99.90;;;;;;4999215;28;20030;-36
2022/04/15 02:04:13;;;;;;;17.83;10.43;;;12.90;99.90;;;;;;5000768;28;20041;-35
2022/04/15 02:06:38;;;;;;;18.27;11.20;;;13.00;99.90;;;;;;5001158;28;20386;-35
2022/04/15 02:09:04;;;;;;;17.50;11.70;;;13.00;99.90;;;;;;5000293;28;20033;-36
2022/04/15 02:11:30;;;;;;;16.13;10.77;;;12.90;99.90;;;;;;4998684;28;20030;-36
2022/04/15 02:13:55;;;;;;;16.60;12.00;;;12.90;99.90;;;;;;5003821;28;20480;-35
2022/04/15 02:16:21;;;;;;;19.67;11.75;;;13.00;99.90;;;;;;4995648;28;20088;-35
2022/04/15 02:18:47;;;;;;;17.63;11.60;;;13.00;99.90;;;;;;4998023;28;20523;-36
2022/04/15 02:21:12;;;;;;;19.08;11.23;;;13.00;99.90;;;;;;5001747;28;20099;-34
2022/04/15 02:23:38;;;;;;;16.50;11.35;;;13.10;99.90;;;;;;5001971;28;20049;-36
2022/04/15 02:26:03;;;;;;;16.98;10.77;;;13.10;99.90;;;;;;4997399;28;20042;-34
2022/04/15 02:28:29;;;;;;;17.52;11.73;;;13.10;99.90;;;;;;5002833;28;20611;-35
2022/04/15 02:30:55;;;;;;;16.05;10.95;;;13.10;99.90;;;;;;5000956;28;20038;-36
2022/04/15 02:33:20;;;;;;;19.77;11.90;;;13.10;99.90;;;;;;5006890;28;20093;-35
2022/04/15 02:35:46;;;;;;;20.58;12.48;;;13.10;99.90;;;;;;4997607;28;20037;-36
2022/04/15 02:38:12;;;;;;;17.52;10.88;;;13.10;99.90;;;;;;5002974;28;20107;-35
2022/04/15 02:40:38;;;;;;;17.52;10.85;;;13.10;99.90;;;;;;5003513;28;20037;-35
2022/04/15 02:43:04;;;;;;;20.25;12.15;;;13.20;99.90;;;;;;4999979;28;20033;-35
2022/04/15 02:45:30;;;;;;;17.13;11.60;;;13.20;99.90;;;;;;5002901;28;20042;-36
2022/04/15 02:47:56;;;;;;;19.15;11.32;;;13.10;99.90;;;;;;4996816;28;20021;-36
2022/04/15 02:50:22;;;;;;;18.17;11.45;;;12.90;99.90;;;;;;5002745;28;20026;-35
2022/04/15 02:52:49;;;;;;;17.15;11.70;;;12.90;99.90;;;;;;5002026;28;20036;-37
2022/04/15 02:55:14;;;;;;;20.17;12.10;;;13.00;99.90;;;;;;4999541;28;20030;-35
2022/04/15 02:57:40;;;;;;;20.55;11.90;;;13.00;99.90;;;;;;5003715;28;20022;-35
2022/04/15 03:00:07;;;;;;;17.77;11.85;;;12.90;99.90;;;;;;5005411;28;20041;-35
2022/04/15 03:02:32;;;;;;;16.92;11.93;;;12.80;99.90;;;;;;4997701;28;20100;-35
2022/04/15 03:04:58;;;;;;;19.70;11.43;;;12.80;99.90;;;;;;5000426;28;20029;-35
2022/04/15 03:07:24;;;;;;;17.95;11.40;;;12.80;99.90;;;;;;5002461;28;20030;-35
2022/04/15 03:09:50;;;;;;;18.35;11.70;;;12.80;99.90;;;;;;5000675;28;20541;-36
2022/04/15 03:12:15;;;;;;;18.65;11.98;;;12.80;99.90;;;;;;5003617;28;20033;-33
2022/04/15 03:14:41;;;;;;;18.90;12.15;;;12.90;99.90;;;;;;5000058;28;20087;-35
2022/04/15 03:17:07;;;;;;;18.20;11.55;;;12.90;99.90;;;;;;5000758;28;20157;-35
2022/04/15 03:19:33;;;;;;;18.05;12.32;;;12.90;99.90;;;;;;5001233;28;20125;-32
2022/04/15 03:21:59;;;;;;;17.42;11.60;;;12.80;99.90;;;;;;4999302;28;20384;-34
2022/04/15 03:24:24;;;;;;;21.05;12.18;;;12.90;99.90;;;;;;5004666;28;20447;-35
2022/04/15 03:26:50;;;;;;;20.27;12.75;;;12.80;99.90;;;;;;4997318;28;20022;-35
2022/04/15 03:29:15;;;;;;;24.75;14.05;;;12.70;99.90;;;;;;5000219;28;20030;-34
2022/04/15 03:31:41;;;;;;;22.48;12.30;;;12.60;99.90;;;;;;5000738;28;20036;-34
2022/04/15 03:34:07;;;;;;;19.00;11.55;;;12.60;99.90;;;;;;5000366;28;20097;-34
2022/04/15 03:36:33;;;;;;;19.75;11.98;;;12.60;99.90;;;;;;4998087;28;21836;-34
2022/04/15 03:38:58;;;;;;;15.65;10.75;;;12.60;99.90;;;;;;5001161;28;20384;-34
2022/04/15 03:41:24;;;;;;;18.02;11.30;;;12.60;99.90;;;;;;5000692;28;20175;-33
2022/04/15 03:43:50;;;;;;;16.63;11.23;;;12.40;99.90;;;;;;5001226;28;20026;-35
2022/04/15 03:46:16;;;;;;;17.48;11.75;;;12.40;99.90;;;;;;5000352;28;20026;-35
2022/04/15 03:48:42;;;;;;;21.13;12.20;;;12.40;99.90;;;;;;4998331;28;20034;-34
2022/04/15 03:51:11;;;;;;;18.95;11.50;;;12.50;99.90;;;;;;5007003;28;20052;-35
2022/04/15 03:53:37;;;;;;;16.17;10.98;;;12.50;99.90;;;;;;5002787;28;20034;-35
2022/04/15 03:56:06;;;;;;;17.15;11.65;;;12.60;99.90;;;;;;5000199;28;20036;-35
2022/04/15 03:58:31;;;;;;;19.13;12.00;;;12.60;99.90;;;;;;4999785;28;20030;-34
2022/04/15 04:00:57;;;;;;;16.77;11.18;;;12.60;99.90;;;;;;4999835;28;20041;-36
2022/04/15 04:03:23;;;;;;;18.42;12.30;;;12.60;99.90;;;;;;5000637;28;20045;-36
2022/04/15 04:05:48;;;;;;;18.35;11.25;;;12.60;99.90;;;;;;4999344;28;20514;-36
2022/04/15 04:08:14;;;;;;;18.90;11.65;;;12.60;99.90;;;;;;5001267;28;20026;-35
2022/04/15 04:10:40;;;;;;;18.10;11.68;;;12.60;99.90;;;;;;5001246;28;20038;-36
2022/04/15 04:13:05;;;;;;;19.55;11.73;;;12.60;99.90;;;;;;4999838;28;20034;-36
2022/04/15 04:15:32;;;;;;;19.55;12.32;;;12.60;99.90;;;;;;4997508;28;20408;-36
2022/04/15 04:17:58;;;;;;;19.92;12.18;;;12.60;99.90;;;;;;5000208;28;20041;-36
2022/04/15 04:20:24;;;;;;;18.38;11.80;;;12.50;99.90;;;;;;5001182;28;20029;-36
2022/04/15 04:22:49;;;;;;;18.77;12.50;;;12.50;99.90;;;;;;4999456;28;20030;-34
2022/04/15 04:25:15;;;;;;;17.75;11.65;;;12.50;99.90;;;;;;5002945;28;20033;-36
2022/04/15 04:27:42;;;;;;;21.17;12.25;;;12.60;99.90;;;;;;4998695;28;20482;-34
2022/04/15 04:30:12;;;;;;;17.77;12.25;;;12.50;99.90;;;;;;5001540;28;20064;-34
2022/04/15 04:32:38;;;;;;;18.13;11.60;;;12.50;99.90;;;;;;4995867;28;20503;-36
2022/04/15 04:35:05;;;;;;;18.95;11.57;;;12.50;99.90;;;;;;5000577;28;20030;-37
2022/04/15 04:37:31;;;;;;;16.85;10.68;;;12.50;99.90;;;;;;4992851;28;20135;-36
2022/04/15 04:39:57;;;;;;;16.85;10.93;;;12.40;99.90;;;;;;4983154;28;20139;-34
2022/04/15 04:42:24;;;;;;;19.65;11.15;;;12.50;99.90;;;;;;5001107;28;20034;-36
2022/04/15 04:44:51;;;;;;;15.13;10.57;;;12.50;99.90;;;;;;5001256;28;20072;-35
2022/04/15 04:47:19;;;;;;;15.82;10.43;;;12.50;99.90;;;;;;4999591;28;20030;-36
2022/04/15 04:49:45;;;;;;;16.50;10.75;;;12.50;99.90;;;;;;4999575;28;20045;-36
2022/04/15 04:52:11;;;;;;;17.98;10.57;;;12.50;99.90;;;;;;5006101;28;20387;-35
2022/04/15 04:54:37;;;;;;;18.00;11.15;;;12.50;99.90;;;;;;5001531;28;20029;-35
2022/04/15 04:57:03;;;;;;;15.07;10.20;;;12.40;99.90;;;;;;5000451;28;20032;-36
2022/04/15 04:59:31;;;;;;;15.93;10.05;;;12.40;99.90;;;;;;4997434;28;20026;-36
2022/04/15 05:01:57;;;;;;;18.43;11.60;;;12.50;99.90;;;;;;4996790;28;20041;-36
2022/04/15 05:04:22;;;;;;;18.98;12.07;;;12.50;99.90;;;;;;4999741;28;20034;-36
2022/04/15 05:06:49;;;;;;;17.23;12.05;;;12.40;99.90;;;;;;4998608;28;20037;-37
2022/04/15 05:09:15;;;;;;;20.23;12.10;;;12.40;99.90;;;;;;4995343;28;20033;-36
2022/04/15 05:11:41;;;;;;;20.65;13.38;;;12.50;99.90;;;;;;5000128;28;20022;-36
2022/04/15 05:14:07;;;;;;;20.98;13.05;;;12.50;99.90;;;;;;4997124;28;20037;-35
2022/04/15 05:16:33;;;;;;;20.77;12.05;;;12.50;99.90;;;;;;4995771;28;20124;-35
2022/04/15 05:18:59;;;;;;;21.83;13.45;;;12.50;99.90;;;;;;4984305;28;20124;-36
2022/04/15 05:21:24;;;;;;;23.75;12.98;;;12.60;99.90;;;;;;4977189;28;20610;-36
2022/04/15 05:23:50;;;;;;;20.00;12.35;;;12.60;99.90;;;;;;4999921;28;20038;-36
2022/04/15 05:26:16;;;;;;;20.35;12.43;;;12.60;99.90;;;;;;4997865;28;20061;-35
2022/04/15 05:28:42;;;;;;;23.20;12.65;;;12.70;99.90;;;;;;5000597;28;20029;-36
2022/04/15 05:31:09;;;;;;;25.55;13.90;;;12.70;99.90;;;;;;4998646;28;20044;-36
2022/04/15 05:33:35;;;;;;;20.38;12.60;;;12.70;99.90;;;;;;4998125;28;20026;-36
2022/04/15 05:36:01;;;;;;;23.00;13.57;;;12.70;99.90;;;;;;5006557;28;20030;-36
2022/04/15 05:38:26;;;;;;;23.00;13.82;;;12.70;99.90;;;;;;5006675;28;20048;-35
2022/04/15 05:40:52;;;;;;;23.00;14.73;;;12.70;99.90;;;;;;4982687;28;20033;-36
2022/04/15 05:43:18;;;;;;;22.73;13.38;;;12.70;99.90;;;;;;5005533;28;20538;-37
2022/04/15 05:45:44;;;;;;;20.90;13.13;;;12.80;99.90;;;;;;4998075;28;20029;-35
2022/04/15 05:48:10;;;;;;;24.05;12.88;;;12.80;99.90;;;;;;5005600;28;20033;-35
2022/04/15 05:50:35;;;;;;;22.35;13.45;;;12.90;99.90;;;;;;5002739;28;20018;-35
2022/04/15 05:53:01;;;;;;;25.58;12.25;;;13.00;99.90;;;;;;4999527;28;20029;-36
2022/04/15 05:55:26;;;;;;;19.98;12.18;;;13.00;99.90;;;;;;5004086;28;20030;-36
2022/04/15 05:57:52;;;;;;;26.10;13.27;;;13.10;99.90;;;;;;5005360;28;20034;-36
2022/04/15 06:00:19;;;;;;;19.85;12.93;;;13.20;99.90;;;;;;5001102;28;20044;-35
2022/04/15 06:02:44;;;;;;;21.88;13.27;;;13.10;99.90;;;;;;5002012;28;20053;-36
2022/04/15 06:05:10;;;;;;;22.88;12.60;;;13.10;99.90;;;;;;5004191;28;20037;-36
2022/04/15 06:07:36;;;;;;;22.40;13.13;;;13.00;99.90;;;;;;5008891;28;20038;-36
2022/04/15 06:10:03;;;;;;;21.25;12.93;;;12.90;99.90;;;;;;5004663;28;20103;-35
2022/04/15 06:12:54;;;;;;;19.50;12.05;;;13.00;99.90;;;;;;5003572;28;21888;-36
2022/04/15 06:15:30;;;;;;;17.17;12.05;;;13.10;99.90;;;;;;5002526;28;20117;-34
2022/04/15 06:17:57;;;;;;;19.80;11.18;;;13.10;99.90;;;;;;5006967;28;20381;-34
2022/04/15 06:20:23;;;;;;;20.50;12.95;;;13.30;99.90;;;;;;5002114;28;20445;-35
2022/04/15 06:22:48;;;;;;;20.80;12.35;;;13.30;99.90;;;;;;5004379;28;20034;-35
2022/04/15 06:25:14;;;;;;;24.42;12.70;;;13.30;99.90;;;;;;5004690;28;20490;-36
2022/04/15 06:27:40;;;;;;;20.05;11.70;;;13.40;99.90;;;;;;5003376;28;21451;-36
2022/04/15 06:30:07;;;;;;;20.42;11.38;;;13.30;99.90;;;;;;5001672;28;20053;-36
2022/04/15 06:32:34;;;;;;;23.50;12.65;;;13.40;99.90;;;;;;4979278;28;20120;-36
2022/04/15 06:34:59;;;;;;;20.55;12.15;;;13.40;99.90;;;;;;4997240;28;20021;-35
2022/04/15 06:37:25;;;;;;;19.60;11.38;;;13.50;99.90;;;;;;5004860;28;20022;-35
2022/04/15 06:39:51;;;;;;;19.35;10.95;;;13.50;99.90;;;;;;5004972;28;20083;-36
2022/04/15 06:42:28;;;;;;;16.58;10.27;;;13.60;99.90;;;;;;5004833;28;20034;-35
2022/04/15 06:44:54;;;;;;;15.63;10.40;;;13.60;99.90;;;;;;5005068;28;20125;-36
2022/04/15 06:47:20;;;;;;;15.35;9.23;;;13.60;99.90;;;;;;4985355;28;20033;-36
2022/04/15 06:49:47;;;;;;;18.50;9.90;;;13.50;99.90;;;;;;5001452;28;22224;-36
2022/04/15 06:52:14;;;;;;;15.95;10.18;;;13.60;99.90;;;;;;5002246;28;20141;-36
2022/04/15 06:54:40;;;;;;;20.50;10.68;;;13.50;99.90;;;;;;5002918;28;20057;-36
2022/04/15 06:57:06;;;;;;;16.33;9.55;;;13.60;99.90;;;;;;5004328;28;20113;-36
2022/04/15 06:59:32;;;;;;;16.75;10.07;;;13.50;99.90;;;;;;5003259;28;20144;-36
2022/04/15 07:01:59;;;;;;;15.63;9.82;;;13.50;99.90;;;;;;5001273;28;20446;-35
2022/04/15 07:04:25;;;;;;;16.95;9.63;;;13.50;99.90;;;;;;4995817;28;20140;-35
2022/04/15 07:06:51;;;;;;;18.83;10.38;;;13.50;99.90;;;;;;4994809;28;20132;-35
2022/04/15 07:09:16;;;;;;;19.08;10.50;;;13.50;99.90;;;;;;4998318;28;20588;-36
2022/04/15 07:11:42;;;;;;;18.50;9.65;;;13.60;99.90;;;;;;5001125;28;20025;-36
2022/04/15 07:14:08;;;;;;;14.02;9.73;;;13.60;99.90;;;;;;4999151;28;20038;-36
2022/04/15 07:16:34;;;;;;;16.92;9.65;;;13.70;99.90;;;;;;5005469;28;20096;-35
2022/04/15 07:19:04;;;;;;;18.65;10.32;;;13.60;99.90;;;;;;4995250;28;20032;-36
2022/04/15 07:21:34;;;;;;;16.85;9.88;;;13.70;99.90;;;;;;4999036;28;20045;-35
2022/04/15 07:24:00;;;;;;;15.55;9.32;;;13.70;99.90;;;;;;4998373;28;20036;-36
2022/04/15 07:26:25;;;;;;;16.25;9.38;;;13.70;99.90;;;;;;4980893;28;20483;-35
2022/04/15 07:28:51;;;;;;;15.85;9.32;;;13.70;99.90;;;;;;5002971;28;20025;-33
2022/04/15 07:31:16;;;;;;;17.83;10.48;;;13.70;99.90;;;;;;4999050;28;20037;-34
2022/04/15 07:33:42;;;;;;;13.07;8.70;;;13.80;99.90;;;;;;5001808;28;20384;-35
2022/04/15 07:36:31;;;;;;;17.05;9.75;;;13.80;99.90;;;;;;5002569;28;20034;-34
2022/04/15 07:38:53;;;;;;;12.30;8.30;;;13.80;99.90;;;;;;5007267;28;20037;-35
2022/04/15 07:41:19;;;;;;;17.02;10.55;;;13.80;99.90;;;;;;4994303;28;20415;-33
2022/04/15 07:43:48;;;;;;;16.40;9.32;;;13.80;99.90;;;;;;4997842;28;20049;-34
2022/04/15 07:46:14;;;;;;;13.18;8.68;;;13.80;99.90;;;;;;5005081;28;20031;-34
2022/04/15 07:48:40;;;;;;;15.65;8.93;;;13.90;99.90;;;;;;5001748;28;20467;-35
2022/04/15 07:51:06;;;;;;;15.85;9.95;;;13.90;99.90;;;;;;4999511;28;20038;-34
2022/04/15 07:53:32;;;;;;;15.20;9.88;;;13.90;99.90;;;;;;5001745;28;20100;-35
2022/04/15 07:55:57;;;;;;;15.00;9.50;;;13.90;99.90;;;;;;4993979;28;20065;-35
2022/04/15 07:58:23;;;;;;;14.85;10.48;;;14.00;99.90;;;;;;4998350;28;20042;-35
2022/04/15 08:00:49;;;;;;;19.13;10.35;;;14.00;99.90;;;;;;5002732;28;20042;-35
2022/04/15 08:03:20;;;;;;;17.70;9.73;;;13.90;99.90;;;;;;5000970;28;20037;-34
2022/04/15 08:05:45;;;;;;;18.98;9.90;;;14.10;99.90;;;;;;5008532;28;20030;-34
2022/04/15 08:08:11;;;;;;;14.23;9.20;;;14.30;99.90;;;;;;5005664;28;20028;-35
2022/04/15 08:10:37;;;;;;;16.35;10.38;;;14.40;99.90;;;;;;5003228;28;20026;-34
2022/04/15 08:13:03;;;;;;;16.33;8.88;;;14.40;99.90;;;;;;5003791;28;20049;-33
2022/04/15 08:15:29;;;;;;;14.50;9.02;;;14.60;99.90;;;;;;5007850;28;20509;-35
2022/04/15 08:17:54;;;;;;;14.25;9.32;;;14.90;99.90;;;;;;5004447;28;20034;-34
2022/04/15 08:20:20;;;;;;;16.35;9.70;;;15.30;99.90;;;;;;5008238;28;20077;-34
2022/04/15 08:22:45;;;;;;;16.23;8.70;;;15.50;99.90;;;;;;5002327;28;20072;-35
2022/04/15 08:25:11;;;;;;;12.73;8.57;;;15.40;99.90;;;;;;5003694;28;20124;-33
2022/04/15 08:27:37;;;;;;;15.55;9.32;;;15.40;99.90;;;;;;5006870;28;20026;-34
2022/04/15 08:30:03;;;;;;;17.80;10.13;;;15.40;99.90;;;;;;5004108;28;20086;-34
2022/04/15 08:32:33;;;;;;;18.52;10.43;;;15.60;99.90;;;;;;5000163;28;20072;-34
2022/04/15 08:35:06;;;;;;;13.82;9.68;;;15.70;99.90;;;;;;5003272;28;20037;-34
2022/04/15 08:37:33;;;;;;;19.15;10.05;;;15.70;99.90;;;;;;5009306;28;20030;-34
2022/04/15 08:40:00;;;;;;;19.00;10.90;;;15.80;99.90;;;;;;5006646;28;20367;-34
2022/04/15 08:42:26;;;;;;;18.65;10.55;;;15.80;99.90;;;;;;5008781;28;20034;-33
2022/04/15 08:44:53;;;;;;;17.17;10.23;;;15.80;99.90;;;;;;5006306;28;20030;-35
2022/04/15 08:47:19;;;;;;;16.58;9.65;;;16.00;99.90;;;;;;5011832;28;20030;-35
2022/04/15 08:49:46;;;;;;;19.15;10.25;;;16.00;99.90;;;;;;5007539;28;20491;-34
2022/04/15 08:52:16;;;;;;;19.33;11.95;;;16.10;99.90;;;;;;5001745;28;20057;-34
2022/04/15 08:54:43;;;;;;;16.30;10.07;;;16.00;99.90;;;;;;5005419;28;20022;-35
2022/04/15 08:57:09;;;;;;;15.23;9.48;;;16.10;99.90;;;;;;5012466;28;20022;-34
2022/04/15 08:59:35;;;;;;;20.33;12.35;;;16.20;99.90;;;;;;5009094;28;20025;-35
2022/04/15 09:02:01;;;;;;;21.60;11.63;;;16.40;99.90;;;;;;5002991;28;20041;-35
2022/04/15 09:04:26;;;;;;;19.23;11.63;;;16.70;97.90;;;;;;5005514;28;20822;-35
2022/04/15 09:06:56;;;;;;;21.80;11.13;;;16.60;95.40;;;;;;5007122;28;20577;-34
2022/04/15 09:09:31;;;;;;;13.82;9.52;;;16.40;97.60;;;;;;5005457;28;20129;-34
2022/04/15 09:11:58;;;;;;;15.73;10.10;;;16.50;97.60;;;;;;5008385;28;20069;-35
2022/04/15 09:14:25;;;;;;;19.25;11.05;;;16.80;90.50;;;;;;5005569;28;20037;-33
2022/04/15 09:16:50;;;;;;;13.65;9.38;;;17.00;93.90;;;;;;5010427;28;20041;-33
2022/04/15 09:19:19;;;;;;;15.25;9.25;;;17.00;97.00;;;;;;5006148;28;20084;-35
2022/04/15 09:21:56;;;;;;;16.08;9.80;;;17.10;98.30;;;;;;5000414;28;20042;-34
2022/04/15 09:24:31;;;;;;;15.77;9.57;;;16.80;97.70;;;;;;5001328;28;20026;-35
2022/04/15 09:26:56;;;;;;;15.63;9.50;;;17.00;98.80;;;;;;5007280;28;20040;-34
2022/04/15 09:29:25;;;;;;;14.45;9.95;;;17.30;96.40;;;;;;5008595;28;20033;-35
2022/04/15 09:31:54;;;;;;;;;;;17.60;95.30;;;;;;4998086;28;20385;-34
2022/04/15 09:34:19;;;;;;;16.40;9.45;;;17.40;96.30;;;;;;5008186;28;19913;-35
2022/04/15 09:36:47;;;;;;;14.10;8.90;;;17.40;95.70;;;;;;5002560;28;20447;-35
2022/04/15 09:39:16;;;;;;;18.20;9.17;;;17.50;96.80;;;;;;5004114;28;20041;-35
2022/04/15 09:41:54;;;;;;;14.95;9.60;;;18.00;96.60;;;;;;4995846;28;20040;-35
2022/04/15 09:44:21;;;;;;;14.77;9.48;;;18.20;93.60;;;;;;4991987;28;20100;-35
2022/04/15 09:46:50;;;;;;;13.83;9.20;;;17.80;99.70;;;;;;5000385;28;20468;-35
2022/04/15 09:49:16;;;;;;;13.13;8.90;;;17.70;95.30;;;;;;4991902;28;20037;-35
2022/04/15 09:51:44;;;;;;;11.73;8.07;;;17.90;96.10;;;;;;5001569;28;20026;-36
2022/04/15 09:54:11;;;;;;;;;;;18.00;93.50;;;;;;4995274;28;20041;-36
2022/04/15 09:56:39;;;;;;;14.50;8.73;;;17.90;95.20;;;;;;5006047;28;19920;-36
2022/04/15 09:59:09;;;;;;;16.15;9.02;;;17.70;94.50;;;;;;5003326;28;20084;-36
2022/04/15 10:01:40;;;;;;;15.77;9.48;;;17.50;93.30;;;;;;4993451;28;20046;-36
2022/04/15 10:04:08;;;;;;;13.88;8.52;;;17.40;95.40;;;;;;5005759;28;20506;-35
2022/04/15 10:06:34;;;;;;;;;;;17.40;96.00;;;;;;4983591;28;20737;-34
2022/04/15 10:09:02;;;;;;;11.25;7.78;;;17.70;94.70;;;;;;5005934;28;19916;-35
2022/04/15 10:11:32;;;;;;;11.55;7.88;;;18.10;94.80;;;;;;5005949;28;20084;-35
2022/04/15 10:13:58;;;;;;;11.32;8.18;;;17.90;80.60;;;;;;4999567;28;20026;-34
2022/04/15 10:16:24;;;;;;;11.93;7.72;;;17.70;90.20;;;;;;5003370;28;20134;-34
2022/04/15 10:18:50;;;;;;;11.43;8.30;;;17.80;91.30;;;;;;5002339;28;20057;-36
2022/04/15 10:21:16;;;;;;;11.55;7.88;;;17.50;88.10;;;;;;5005051;28;20034;-35
2022/04/15 10:23:42;;;;;;;14.07;8.35;;;17.50;92.20;;;;;;5000534;28;20030;-35
2022/04/15 10:26:09;;;;;;;12.45;7.57;;;17.30;91.00;;;;;;5007176;28;20046;-33
2022/04/15 10:28:44;;;;;;;11.55;7.35;;;17.40;93.10;;;;;;5003245;28;20022;-35
2022/04/15 10:31:17;;;;;;;11.85;7.20;;;17.50;91.00;;;;;;5006348;28;20044;-34
2022/04/15 10:33:44;;;;;;;8.15;6.18;;;17.80;92.00;;;;;;5005176;28;20422;-35
2022/04/15 10:36:14;;;;;;;9.48;5.57;;;18.30;91.10;;;;;;5005384;28;20030;-35
2022/04/15 10:39:10;;;;;;;11.05;5.90;;;18.50;74.80;;;;;;5003933;28;20079;-34
2022/04/15 10:41:41;;;;;;;8.60;5.63;;;18.30;67.50;;;;;;4991510;28;20064;-34
2022/04/15 10:44:23;;;;;;;7.22;5.50;;;18.10;81.00;;;;;;5001493;28;20025;-34
2022/04/15 10:46:49;;;;;;;7.88;4.70;;;18.30;75.10;;;;;;5009290;28;20036;-35
2022/04/15 10:49:30;;;;;;;7.13;4.70;;;18.50;74.80;;;;;;4994562;28;20030;-35
2022/04/15 10:52:01;;;;;;;9.60;5.57;;;18.60;68.70;;;;;;5003123;28;20030;-36
2022/04/15 10:54:38;;;;;;;9.63;5.28;;;18.10;66.10;;;;;;5005702;28;20076;-35
2022/04/15 10:57:17;;;;;;;7.10;5.80;;;18.00;73.00;;;;;;5008435;28;20121;-35
2022/04/15 11:02:45;;;;;;;5.75;4.05;;;17.90;72.20;;;;;;4991200;28;20462;-34
2022/04/15 11:05:40;;;;;;;4.47;3.63;;;18.50;75.40;;;;;;5004367;28;20105;-33
2022/04/15 11:08:10;;;;;;;5.63;3.67;;;19.00;63.40;;;;;;5009621;28;20038;-35
2022/04/15 11:10:42;;;;;;;6.95;3.58;;;19.10;67.50;;;;;;5006885;28;20026;-35
2022/04/15 11:13:27;;;;;;;9.90;3.70;;;18.90;57.70;;;;;;5000201;28;20063;-33
2022/04/15 11:15:59;;;;;;;5.07;3.92;;;18.80;59.00;;;;;;5004997;28;20041;-35
2022/04/15 11:18:52;;;;;;;6.40;3.92;;;18.80;59.90;;;;;;5013598;28;20058;-35
2022/04/15 11:21:21;;;;;;;6.70;3.92;;;18.80;61.10;;;;;;5007950;28;20067;-35
2022/04/15 11:23:53;;;;;;;9.95;4.75;;;18.70;63.30;;;;;;5007733;28;20034;-35
2022/04/15 11:26:24;;;;;;;4.97;4.03;;;18.80;69.00;;;;;;4999901;28;20048;-35
2022/04/15 11:28:51;;;;;;;7.53;4.50;;;18.60;72.60;;;;;;5006469;28;20503;-35
2022/04/15 11:31:38;;;;;;;7.72;3.78;;;18.70;70.60;;;;;;4994927;28;20043;-35
2022/04/15 11:34:11;;;;;;;6.35;3.95;;;18.50;67.50;;;;;;5000409;28;20030;-35
2022/04/15 11:36:41;;;;;;;5.72;4.15;;;18.20;70.20;;;;;;5000647;28;20034;-35
2022/04/15 11:39:12;;;;;;;4.57;3.83;;;18.20;73.50;;;;;;5008126;28;20108;-35
2022/04/15 11:41:44;;;;;;;7.20;4.75;;;18.20;69.00;;;;;;5003606;28;20030;-36
2022/04/15 11:44:10;;;;;;;5.65;4.20;;;18.20;75.40;;;;;;5005566;28;20034;-34
2022/04/15 11:46:36;;;;;;;4.93;3.75;;;18.20;72.30;;;;;;5005978;28;20084;-35
2022/04/15 11:49:04;;;;;;;5.70;4.03;;;18.10;67.00;;;;;;5001811;28;20026;-35
2022/04/15 11:51:29;;;;;;;;;;;18.10;71.90;;;;;;5006469;28;20383;-36
2022/04/15 11:53:57;;;;;;;5.50;4.07;;;18.00;68.40;;;;;;4998405;28;19921;-34
2022/04/15 11:56:26;;;;;;;5.32;4.47;;;17.70;67.60;;;;;;5001345;28;20069;-36
2022/04/15 11:58:52;;;;;;;5.82;4.40;;;17.60;70.60;;;;;;5011167;28;20037;-36
2022/04/15 12:01:29;;;;;;;6.88;4.82;;;17.60;79.00;;;;;;4992084;28;20124;-35
2022/04/15 12:03:55;;;;;;;7.50;4.68;;;17.70;74.50;;;;;;5002397;28;20053;-35
2022/04/15 12:06:22;;;;;;;8.00;4.50;;;17.80;76.30;;;;;;5003072;28;20034;-36
2022/04/15 12:08:49;;;;;;;7.35;5.00;;;17.90;82.40;;;;;;5005905;28;20396;-35
2022/04/15 12:11:15;;;;;;;6.18;4.80;;;18.00;80.30;;;;;;5001223;28;20491;-36
2022/04/15 12:13:40;;;;;;;7.00;4.40;;;18.20;71.60;;;;;;5003479;28;20026;-36
2022/04/15 12:16:06;;;;;;;7.63;5.10;;;18.30;65.00;;;;;;5000874;28;20487;-34
2022/04/15 12:18:32;;;;;;;7.35;5.03;;;18.50;69.00;;;;;;5008798;28;20598;-35
2022/04/15 12:20:59;;;;;;;6.50;4.90;;;18.70;78.80;;;;;;5002138;28;20065;-35
2022/04/15 12:23:26;;;;;;;6.20;4.53;;;18.60;79.90;;;;;;5006038;28;20036;-34
2022/04/15 12:26:21;;;;;;;7.35;5.00;;;18.60;74.80;;;;;;4998286;28;20121;-36
2022/04/15 12:31:32;;;;;;;6.88;4.63;;;19.00;67.70;;;;;;5009951;28;20045;-35
2022/04/15 12:34:02;;;;;;;6.15;4.70;;;19.00;64.30;;;;;;5007354;28;20030;-35
2022/04/15 12:36:42;;;;;;;7.57;5.07;;;19.30;76.40;;;;;;5000816;28;20037;-35
2022/04/15 12:39:09;;;;;;;7.38;4.60;;;19.40;62.90;;;;;;4986164;28;20034;-34
2022/04/15 12:41:46;;;;;;;6.45;5.20;;;19.10;62.20;;;;;;5001319;28;20034;-36